Time;durP1;ratioP1;P1;durP2;ratioP2;P2;SDS_P1;SDS_P2;PMS_P1;PMS_P2;Temp;Humidity;BMP_temperature;BMP_pressure;BME280_temperature;BME280_humidity;BME280_pressure;Samples;Min_cycle;Max_cycle;Signal;HPM_P1;HPM_P2
2023/08/01 00:00:37;;;;;;;6.78;3.42;;;;;;;16.68;76.61;95084.53;2066431;28;20057;-63
2023/08/01 00:02:04;;;;;;;8.18;3.60;;;;;;;16.77;76.34;95093.44;2065554;28;20410;-64
2023/08/01 00:03:32;;;;;;;8.32;3.63;;;;;;;16.79;76.97;95096.75;2056540;28;20432;-63
2023/08/01 00:05:17;;;;;;;14.50;3.40;;;;;;;16.80;75.67;95094.97;2017957;29;20056;-63
2023/08/01 00:06:24;;;;;;;10.77;4.00;;;;;;;16.80;76.49;95092.34;2035616;29;20084;-63
2023/08/01 00:07:35;;;;;;;7.47;3.67;;;;;;;16.82;76.01;95091.25;2062083;28;20054;-63
2023/08/01 00:08:43;;;;;;;7.25;3.42;;;;;;;16.82;75.40;95087.81;2066106;28;20375;-63
2023/08/01 00:11:24;;;;;;;6.00;3.58;;;;;;;16.78;75.94;95089.84;2049223;29;20050;-63
2023/08/01 00:14:43;;;;;;;8.30;3.55;;;;;;;16.79;75.31;95078.41;2034525;28;20073;-63
2023/08/01 00:16:54;;;;;;;6.47;3.53;;;;;;;16.76;75.79;95068.16;2065301;28;20494;-64
2023/08/01 00:23:23;;;;;;;7.70;3.40;;;;;;;16.65;75.99;95068.22;2033161;29;20048;-63
2023/08/01 00:25:07;;;;;;;8.63;3.67;;;;;;;16.65;75.53;95063.00;2032764;29;20072;-63
2023/08/01 00:26:31;;;;;;;6.07;3.70;;;;;;;16.67;75.32;95061.06;2033359;29;20064;-63
2023/08/01 00:27:51;;;;;;;4.68;3.33;;;;;;;16.65;75.28;95055.13;2033524;29;20067;-63
2023/08/01 00:29:22;;;;;;;7.00;3.38;;;;;;;16.64;75.79;95050.84;2038765;29;20155;-63
2023/08/01 00:30:42;;;;;;;9.45;3.55;;;;;;;16.62;74.95;95044.91;2048488;29;20055;-63
2023/08/01 00:31:44;;;;;;;7.85;3.20;;;;;;;16.62;75.71;95050.16;2056330;28;20065;-63
2023/08/01 00:32:49;;;;;;;7.80;3.60;;;;;;;16.61;75.97;95049.31;2065400;28;20061;-63
2023/08/01 00:33:57;;;;;;;5.68;2.97;;;;;;;16.61;75.68;95048.50;2065981;28;20038;-63
2023/08/01 00:37:34;;;;;;;10.48;3.17;;;;;;;16.59;76.46;95037.31;2065410;28;20046;-63
2023/08/01 00:40:42;;;;;;;8.52;3.22;;;;;;;16.56;75.82;95021.84;2040644;29;20059;-63
2023/08/01 00:41:43;;;;;;;5.50;3.40;;;;;;;16.58;76.01;95027.81;2061930;28;20509;-63
2023/08/01 00:42:46;;;;;;;8.60;2.83;;;;;;;16.58;76.01;95033.03;2065770;28;20050;-63
2023/08/01 00:44:47;;;;;;;5.40;3.13;;;;;;;16.56;75.17;95033.16;2065956;28;20057;-63
2023/08/01 00:45:45;;;;;;;9.05;3.75;;;;;;;16.51;75.37;95012.59;2063550;28;20042;-63
2023/08/01 00:46:56;;;;;;;6.78;3.25;;;;;;;16.47;75.75;95007.78;2057176;28;20051;-63
2023/08/01 00:48:00;;;;;;;4.40;3.00;;;;;;;16.47;74.52;95016.44;2057910;28;20054;-63
2023/08/01 00:49:06;;;;;;;5.95;2.90;;;;;;;16.44;75.40;95000.16;2065384;28;20049;-63
2023/08/01 00:50:08;;;;;;;5.25;2.92;;;;;;;16.49;75.18;95011.06;2064789;28;20046;-63
2023/08/01 00:51:11;;;;;;;6.25;3.13;;;;;;;16.49;75.46;95013.69;2064859;28;20053;-63
2023/08/01 00:52:23;;;;;;;3.85;2.80;;;;;;;16.51;73.86;95009.97;2065110;28;20061;-63
2023/08/01 00:53:25;;;;;;;5.82;3.03;;;;;;;16.53;75.43;95008.06;2057074;28;20058;-64
2023/08/01 00:54:27;;;;;;;5.72;2.80;;;;;;;16.51;74.84;95002.09;2057378;28;20050;-63
2023/08/01 00:55:30;;;;;;;5.85;3.55;;;;;;;16.53;74.13;95002.81;2056814;28;20046;-64
2023/08/01 00:56:31;;;;;;;10.68;3.22;;;;;;;16.57;74.37;95003.38;2040902;29;20075;-63
2023/08/01 00:57:34;;;;;;;5.00;2.95;;;;;;;16.58;75.14;95010.28;2025692;29;20056;-63
2023/08/01 00:58:36;;;;;;;7.80;3.22;;;;;;;16.58;74.44;95012.91;2041672;28;20060;-64
2023/08/01 00:59:37;;;;;;;6.85;2.75;;;;;;;16.57;74.74;95002.53;2065730;28;20062;-63
2023/08/01 01:00:39;;;;;;;5.78;3.03;;;;;;;16.58;74.19;95014.69;2057221;28;20054;-63
2023/08/01 01:01:41;;;;;;;5.50;3.10;;;;;;;16.56;74.19;95014.81;2056547;28;20123;-63
2023/08/01 01:02:46;;;;;;;5.43;2.90;;;;;;;16.56;73.86;95016.63;2064713;28;20085;-63
2023/08/01 01:03:48;;;;;;;7.22;2.58;;;;;;;16.56;73.70;95017.44;2064702;28;20054;-63
2023/08/01 01:04:50;;;;;;;5.47;2.70;;;;;;;16.59;74.02;95021.59;2065044;28;20053;-63
2023/08/01 01:06:15;;;;;;;5.82;2.80;;;;;;;16.59;73.58;95018.97;2064609;28;20110;-63
2023/08/01 01:07:37;;;;;;;5.30;3.15;;;;;;;16.57;75.42;95020.88;2056817;28;20061;-63
2023/08/01 01:08:55;;;;;;;7.93;3.53;;;;;;;16.56;76.09;95021.84;2045913;29;20062;-63
2023/08/01 01:10:12;;;;;;;6.80;3.25;;;;;;;16.52;75.64;95024.75;2053264;28;20043;-63
2023/08/01 01:12:07;;;;;;;7.07;3.53;;;;;;;16.48;76.97;95012.03;2064942;28;20061;-64
2023/08/01 01:13:53;;;;;;;;;;;;;;;;;;;;;
2023/08/01 01:15:28;;;;;;;7.35;3.42;;;;;;;16.40;77.13;95004.84;2033054;29;20157;-63
2023/08/01 01:24:39;;;;;;;5.60;2.90;;;;;;;16.27;76.72;94993.75;2009928;29;20097;-64
2023/08/01 01:25:44;;;;;;;6.38;3.05;;;;;;;16.26;76.48;94992.91;2002153;29;20065;-63
2023/08/01 01:28:13;;;;;;;7.75;3.70;;;;;;;16.32;76.34;94987.16;2037687;29;20059;-63
2023/08/01 01:29:31;;;;;;;6.88;3.15;;;;;;;16.32;75.59;94983.69;2044858;29;20067;-64
2023/08/01 01:30:57;;;;;;;5.88;3.65;;;;;;;16.34;75.73;94987.03;2059212;28;20050;-64
2023/08/01 01:32:08;;;;;;;;;;;;;;;16.35;76.39;94982.63;2043694;29;20090;-63
2023/08/01 01:33:13;;;;;;;4.90;3.13;;;;;;;16.33;76.93;94974.88;2043957;28;19922;-64
2023/08/01 01:34:15;;;;;;;6.05;3.17;;;;;;;16.33;77.24;94977.50;2057157;28;20050;-64
2023/08/01 01:35:16;;;;;;;5.32;3.58;;;;;;;16.31;76.59;94972.41;2057246;28;20062;-63
2023/08/01 01:36:18;;;;;;;5.70;2.83;;;;;;;16.32;76.37;94974.03;2057761;28;20050;-63
2023/08/01 01:37:20;;;;;;;6.25;3.28;;;;;;;16.36;76.23;94974.63;2056836;28;20055;-64
2023/08/01 01:38:22;;;;;;;7.80;3.63;;;;;;;16.38;76.82;94969.25;2057598;28;20047;-64
2023/08/01 01:39:24;;;;;;;6.32;3.63;;;;;;;16.34;76.49;94960.00;2056989;28;20051;-63
2023/08/01 01:40:26;;;;;;;6.10;3.20;;;;;;;16.40;77.11;94967.31;2056704;28;20450;-64
2023/08/01 01:41:27;;;;;;;6.95;3.30;;;;;;;16.42;76.85;94971.47;2056694;28;20047;-63
2023/08/01 01:42:29;;;;;;;5.88;3.00;;;;;;;16.44;76.56;94959.06;2057129;28;20050;-63
2023/08/01 01:43:35;;;;;;;5.72;3.60;;;;;;;16.46;76.31;94966.78;2056935;28;20188;-64
2023/08/01 01:45:09;;;;;;;5.55;3.10;;;;;;;16.51;76.17;94964.59;2054189;28;20062;-64
2023/08/01 01:46:34;;;;;;;6.18;3.30;;;;;;;16.51;76.11;94962.81;2049034;29;20059;-64
2023/08/01 01:48:29;;;;;;;8.20;3.45;;;;;;;16.46;76.35;94946.66;2052407;28;20061;-63
2023/08/01 01:55:18;;;;;;;7.90;3.10;;;;;;;16.48;76.01;94939.47;2041413;28;20031;-63
2023/08/01 01:56:40;;;;;;;;;;;;;;;;;;;;;
2023/08/01 01:57:48;;;;;;;6.47;3.65;;;;;;;16.50;76.21;94934.94;2043643;29;20047;-64
2023/08/01 01:59:32;;;;;;;4.95;3.00;;;;;;;16.52;75.56;94926.97;2041032;29;20068;-63
2023/08/01 02:01:06;;;;;;;5.68;3.00;;;;;;;16.52;76.31;94933.03;2051756;28;20494;-63
2023/08/01 02:04:39;;;;;;;5.28;3.40;;;;;;;16.57;74.88;94931.78;2057394;28;20043;-63
2023/08/01 02:08:12;;;;;;;5.13;3.15;;;;;;;16.59;75.98;94914.13;2055639;28;20062;-64
2023/08/01 02:09:23;;;;;;;6.10;3.20;;;;;;;16.53;75.39;94902.41;2047671;29;20062;-64
2023/08/01 02:11:47;;;;;;;;;;;;;;;;;;;;;
2023/08/01 02:13:08;;;;;;;6.95;3.33;;;;;;;16.67;75.12;94914.28;2046532;28;20047;-63
2023/08/01 02:16:15;;;;;;;5.55;3.28;;;;;;;16.67;74.63;94917.72;2055571;28;20047;-63
2023/08/01 02:17:20;;;;;;;5.22;2.72;;;;;;;16.70;73.50;94912.22;2050207;28;20158;-63
2023/08/01 02:21:51;;;;;;;5.45;3.35;;;;;;;16.78;73.19;94922.06;2027556;29;20045;-63
2023/08/01 02:23:36;;;;;;;6.03;3.33;;;;;;;16.79;73.10;94922.91;2024620;29;20057;-63
2023/08/01 02:24:49;;;;;;;8.60;2.70;;;;;;;16.78;73.24;94914.19;2024394;29;20088;-63
2023/08/01 02:25:54;;;;;;;7.97;3.58;;;;;;;16.81;73.00;94913.09;2024752;29;20072;-64
2023/08/01 02:27:07;;;;;;;6.50;3.22;;;;;;;16.80;72.47;94911.44;2026328;29;20057;-63
2023/08/01 02:28:12;;;;;;;5.60;2.97;;;;;;;16.79;72.96;94921.09;2025759;29;20088;-63
2023/08/01 02:29:14;;;;;;;5.18;3.03;;;;;;;16.79;72.88;94918.47;2058786;28;20061;-63
2023/08/01 02:30:15;;;;;;;7.13;2.95;;;;;;;16.78;73.28;94924.66;2066745;28;20067;-64
2023/08/01 02:31:24;;;;;;;7.22;3.10;;;;;;;16.79;73.45;94923.72;2066815;28;20061;-63
2023/08/01 02:32:56;;;;;;;6.22;3.20;;;;;;;16.75;73.58;94927.53;2066484;28;20050;-64
2023/08/01 02:34:04;;;;;;;6.32;3.17;;;;;;;16.65;74.02;94931.94;2058609;28;20511;-63
2023/08/01 02:37:36;;;;;;;;;;;;;;;16.23;76.37;94921.63;2050931;28;20047;-64
2023/08/01 02:38:46;;;;;;;6.50;3.55;;;;;;;16.16;78.50;94936.22;2066280;28;19924;-64
2023/08/01 02:39:50;;;;;;;5.65;3.20;;;;;;;15.98;79.16;94936.81;2066720;28;20050;-63
2023/08/01 02:40:52;;;;;;;8.95;3.80;;;;;;;15.98;79.45;94939.44;2067045;28;20050;-64
2023/08/01 02:41:53;;;;;;;6.88;3.70;;;;;;;15.94;79.46;94934.63;2066356;28;20050;-63
2023/08/01 02:42:55;;;;;;;6.25;3.63;;;;;;;16.00;80.11;94941.94;2057503;28;20055;-64
2023/08/01 02:44:02;;;;;;;6.93;3.53;;;;;;;15.93;80.24;94938.19;2058144;28;20070;-64
2023/08/01 02:45:04;;;;;;;8.88;3.70;;;;;;;15.87;81.24;94950.00;2066537;28;20069;-65
2023/08/01 02:46:05;;;;;;;5.55;3.50;;;;;;;15.86;81.93;94953.59;2058151;28;20042;-64
2023/08/01 02:47:07;;;;;;;8.15;4.30;;;;;;;15.75;82.92;94944.03;2057658;28;20054;-65
2023/08/01 02:48:11;;;;;;;7.55;3.75;;;;;;;15.72;82.42;94949.53;2066197;28;20046;-65
2023/08/01 02:49:12;;;;;;;6.85;3.67;;;;;;;15.69;83.83;94948.94;2066598;28;20081;-66
2023/08/01 02:50:14;;;;;;;7.93;4.28;;;;;;;15.66;84.12;94940.38;2066721;28;20049;-66
2023/08/01 02:51:15;;;;;;;6.45;3.80;;;;;;;15.55;85.54;94923.91;2066201;28;20050;-66
2023/08/01 02:52:17;;;;;;;7.18;3.45;;;;;;;15.60;84.57;94940.03;2065478;28;20065;-67
2023/08/01 02:53:18;;;;;;;6.18;3.60;;;;;;;15.73;82.96;94938.09;2066310;28;20053;-65
2023/08/01 02:54:20;;;;;;;8.85;4.10;;;;;;;15.69;84.01;94933.22;2066127;28;20494;-66
2023/08/01 02:55:21;;;;;;;7.15;3.90;;;;;;;15.58;83.83;94915.78;2066240;28;20073;-66
2023/08/01 02:56:23;;;;;;;7.20;3.70;;;;;;;15.68;83.51;94936.78;2058233;28;20046;-66
2023/08/01 02:57:24;;;;;;;8.07;3.85;;;;;;;15.68;84.66;94936.78;2058092;28;20055;-66
2023/08/01 02:58:26;;;;;;;7.70;3.20;;;;;;;15.60;84.53;94919.09;2057914;28;20504;-65
2023/08/01 02:59:27;;;;;;;6.88;3.67;;;;;;;15.68;84.19;94931.56;2049649;28;20081;-65
2023/08/01 03:00:29;;;;;;;6.82;3.75;;;;;;;15.61;84.91;94924.22;2058097;28;20069;-66
2023/08/01 03:01:32;;;;;;;5.65;3.60;;;;;;;15.62;85.50;94933.72;2064922;28;20057;-66
2023/08/01 03:02:34;;;;;;;6.85;4.05;;;;;;;15.61;85.40;94934.69;2065179;28;20077;-66
2023/08/01 03:03:36;;;;;;;8.52;4.18;;;;;;;15.51;85.49;94930.34;2066659;28;20050;-67
2023/08/01 03:04:38;;;;;;;8.30;4.03;;;;;;;15.53;86.47;94929.28;2066697;28;20081;-65
2023/08/01 03:05:39;;;;;;;6.68;4.32;;;;;;;15.52;87.05;94938.06;2057563;28;20073;-66
2023/08/01 03:06:43;;;;;;;6.82;4.10;;;;;;;15.50;87.51;94934.75;2057891;28;20073;-66
2023/08/01 03:07:47;;;;;;;7.85;3.97;;;;;;;15.43;87.07;94931.00;2064952;28;20054;-66
2023/08/01 03:08:48;;;;;;;8.90;4.22;;;;;;;15.48;86.96;94946.31;2065692;28;20532;-66
2023/08/01 03:09:52;;;;;;;8.20;4.25;;;;;;;15.43;87.50;94939.66;2065829;28;20418;-67
2023/08/01 03:10:58;;;;;;;6.78;4.10;;;;;;;15.43;88.05;94946.69;2057985;28;20050;-66
2023/08/01 03:12:17;;;;;;;6.30;4.00;;;;;;;15.41;88.31;94941.56;2058468;28;20435;-67
2023/08/01 03:13:31;;;;;;;6.90;4.47;;;;;;;15.33;88.46;94936.16;2065262;28;20485;-66
2023/08/01 03:14:48;;;;;;;8.02;4.53;;;;;;;15.36;89.70;94938.50;2057215;28;20396;-66
2023/08/01 03:15:50;;;;;;;8.25;4.57;;;;;;;15.28;89.83;94934.88;2050531;28;20078;-66
2023/08/01 03:16:51;;;;;;;8.80;4.65;;;;;;;15.32;90.05;94936.28;2058011;28;20396;-66
2023/08/01 03:17:53;;;;;;;10.73;4.60;;;;;;;15.31;90.24;94942.47;2058688;28;20395;-65
2023/08/01 03:18:54;;;;;;;7.90;4.53;;;;;;;15.30;90.95;94940.81;2066559;28;20402;-65
2023/08/01 03:19:55;;;;;;;9.18;5.47;;;;;;;15.28;91.47;94934.88;2066210;28;20414;-66
2023/08/01 03:20:57;;;;;;;6.90;4.60;;;;;;;15.24;91.09;94939.53;2065530;28;20383;-65
2023/08/01 03:22:00;;;;;;;7.95;5.00;;;;;;;15.23;91.43;94945.72;2065521;28;20490;-65
2023/08/01 03:23:01;;;;;;;7.97;5.00;;;;;;;15.21;91.96;94940.63;2066491;28;20408;-65
2023/08/01 03:24:03;;;;;;;10.80;5.65;;;;;;;15.17;92.72;94938.38;2066383;28;20432;-64
2023/08/01 03:25:07;;;;;;;8.40;5.07;;;;;;;15.12;93.46;94941.34;2066509;28;20046;-64
2023/08/01 03:26:08;;;;;;;7.20;4.40;;;;;;;15.10;93.56;94947.66;2057136;28;20463;-63
2023/08/01 03:27:10;;;;;;;9.10;4.80;;;;;;;15.08;93.57;94942.59;2049914;28;20486;-63
2023/08/01 03:28:11;;;;;;;8.85;4.90;;;;;;;15.05;93.42;94941.97;2057782;28;20526;-63
2023/08/01 03:29:16;;;;;;;8.20;5.22;;;;;;;15.06;94.71;94948.88;2065807;28;20057;-62
2023/08/01 03:30:17;;;;;;;8.52;5.05;;;;;;;14.96;94.51;94936.56;2066597;28;20483;-62
2023/08/01 03:31:19;;;;;;;8.13;5.40;;;;;;;15.03;94.46;94949.97;2066372;28;20048;-61
2023/08/01 03:32:20;;;;;;;10.50;5.03;;;;;;;15.04;94.44;94942.94;2056893;28;20424;-61
2023/08/01 03:33:23;;;;;;;8.82;4.68;;;;;;;15.03;93.76;94949.97;2049178;28;20050;-61
2023/08/01 03:34:26;;;;;;;10.02;5.07;;;;;;;15.00;94.25;94950.22;2049305;28;20043;-62
2023/08/01 03:35:27;;;;;;;8.23;5.05;;;;;;;14.99;94.27;94956.38;2057770;28;20478;-65
2023/08/01 03:36:29;;;;;;;13.60;5.95;;;;;;;14.98;95.38;94944.28;2065929;28;20494;-64
2023/08/01 03:37:30;;;;;;;9.80;5.68;;;;;;;14.95;95.36;94936.69;2057370;28;20475;-64
2023/08/01 03:38:31;;;;;;;8.55;5.22;;;;;;;14.87;95.20;94934.69;2057301;28;20513;-63
2023/08/01 03:39:32;;;;;;;9.52;5.10;;;;;;;14.96;94.81;94933.09;2065465;28;20451;-62
2023/08/01 03:40:34;;;;;;;9.18;5.05;;;;;;;14.95;95.12;94929.69;2066367;28;20073;-62
2023/08/01 03:41:39;;;;;;;8.77;4.93;;;;;;;14.90;94.46;94924.00;2066125;28;20062;-62
2023/08/01 03:42:41;;;;;;;8.15;4.40;;;;;;;14.89;95.00;94924.94;2066214;28;20516;-61
2023/08/01 03:43:42;;;;;;;7.63;4.57;;;;;;;14.93;95.71;94938.59;2065996;28;20501;-61
2023/08/01 03:44:43;;;;;;;10.57;5.53;;;;;;;14.91;96.54;94937.88;2065279;28;20058;-61
2023/08/01 03:45:44;;;;;;;7.18;4.18;;;;;;;14.93;95.81;94935.97;2057259;28;20062;-61
2023/08/01 03:46:47;;;;;;;5.70;3.92;;;;;;;14.92;96.37;94935.16;2057229;28;20066;-61
2023/08/01 03:47:48;;;;;;;9.38;5.28;;;;;;;14.90;96.74;94928.38;2057578;28;20061;-62
2023/08/01 03:48:51;;;;;;;8.10;5.05;;;;;;;14.89;96.89;94927.56;2057696;28;20057;-63
2023/08/01 03:49:52;;;;;;;10.55;4.65;;;;;;;14.89;96.96;94921.47;2065848;28;20061;-63
2023/08/01 03:50:54;;;;;;;7.85;4.78;;;;;;;14.86;97.11;94913.91;2066193;28;20050;-63
2023/08/01 03:51:55;;;;;;;9.88;5.45;;;;;;;14.85;97.30;94923.53;2056933;28;20054;-63
2023/08/01 03:52:56;;;;;;;8.68;5.50;;;;;;;14.84;97.54;94929.72;2057743;28;20058;-63
2023/08/01 03:53:58;;;;;;;9.05;5.25;;;;;;;14.78;98.46;94912.75;2065264;28;20047;-63
2023/08/01 03:54:59;;;;;;;9.00;5.38;;;;;;;14.83;98.04;94927.22;2057567;28;20043;-63
2023/08/01 03:56:00;;;;;;;7.18;5.13;;;;;;;14.82;97.78;94930.81;2057375;28;20050;-63
2023/08/01 03:57:03;;;;;;;10.40;5.63;;;;;;;14.83;98.05;94925.44;2056769;28;20047;-62
2023/08/01 03:58:05;;;;;;;8.75;5.68;;;;;;;14.82;98.57;94926.41;2057331;28;20038;-62
2023/08/01 03:59:07;;;;;;;9.75;5.28;;;;;;;14.76;98.82;94911.22;2066465;28;20378;-62
2023/08/01 04:00:18;;;;;;;7.93;5.18;;;;;;;14.77;98.42;94918.91;2065384;28;20046;-62
2023/08/01 04:01:20;;;;;;;9.75;5.55;;;;;;;14.76;98.54;94922.50;2065736;28;20517;-62
2023/08/01 04:02:24;;;;;;;8.18;5.65;;;;;;;14.76;98.95;94919.06;2056940;28;20399;-61
2023/08/01 04:03:25;;;;;;;8.52;5.25;;;;;;;14.74;99.55;94921.78;2057780;28;20051;-62
2023/08/01 04:04:27;;;;;;;9.10;5.22;;;;;;;14.74;99.44;94918.34;2065604;28;20601;-62
2023/08/01 04:05:28;;;;;;;9.93;4.97;;;;;;;14.72;98.94;94918.47;2066502;28;20061;-62
2023/08/01 04:06:29;;;;;;;10.82;6.18;;;;;;;14.73;99.79;94925.38;2057182;28;20419;-61
2023/08/01 04:07:31;;;;;;;13.48;7.13;;;;;;;14.72;100.00;94917.63;2057395;28;20501;-61
2023/08/01 04:08:32;;;;;;;10.80;5.75;;;;;;;14.69;100.00;94910.88;2057166;28;20050;-61
2023/08/01 04:09:33;;;;;;;13.10;6.28;;;;;;;14.74;100.00;94920.97;2057125;28;20043;-61
2023/08/01 04:10:35;;;;;;;10.05;6.03;;;;;;;14.72;100.00;94913.22;2066033;28;20410;-61
2023/08/01 04:11:36;;;;;;;8.45;5.43;;;;;;;14.74;100.00;94916.56;2065753;28;20053;-61
2023/08/01 04:12:38;;;;;;;11.50;6.47;;;;;;;14.74;100.00;94906.09;2065535;28;20058;-61
2023/08/01 04:13:39;;;;;;;10.40;6.00;;;;;;;14.74;100.00;94906.09;2066126;28;20050;-61
2023/08/01 04:14:40;;;;;;;9.40;5.88;;;;;;;14.74;100.00;94911.34;2065819;28;20058;-61
2023/08/01 04:15:42;;;;;;;9.38;5.82;;;;;;;14.74;100.00;94900.06;2065709;28;20054;-61
2023/08/01 04:16:44;;;;;;;9.45;6.45;;;;;;;14.69;100.00;94897.81;2065833;28;20059;-60
2023/08/01 04:17:45;;;;;;;9.82;6.78;;;;;;;14.71;100.00;94895.91;2065914;28;20498;-61
2023/08/01 04:18:47;;;;;;;14.90;6.18;;;;;;;14.75;100.00;94897.31;2064955;28;20050;-61
2023/08/01 04:19:48;;;;;;;9.45;5.93;;;;;;;14.75;100.00;94901.69;2065813;28;20069;-61
2023/08/01 04:20:49;;;;;;;9.27;5.60;;;;;;;14.72;100.00;94891.50;2065634;28;20054;-60
2023/08/01 04:21:51;;;;;;;8.68;5.68;;;;;;;14.76;100.00;94896.38;2065055;28;20324;-60
2023/08/01 04:22:52;;;;;;;12.02;6.22;;;;;;;14.76;100.00;94893.75;2065974;28;20038;-60
2023/08/01 04:23:53;;;;;;;10.68;5.68;;;;;;;14.76;100.00;94893.75;2065385;28;20057;-60
2023/08/01 04:24:55;;;;;;;10.05;5.90;;;;;;;14.77;100.00;94892.78;2065892;28;20042;-61
2023/08/01 04:25:58;;;;;;;10.13;5.63;;;;;;;14.76;100.00;94888.53;2065871;28;20050;-61
2023/08/01 04:26:59;;;;;;;8.95;5.90;;;;;;;14.75;100.00;94886.03;2065677;28;20047;-61
2023/08/01 04:28:00;;;;;;;9.30;5.63;;;;;;;14.76;100.00;94895.53;2065147;28;20054;-61
2023/08/01 04:29:01;;;;;;;9.88;6.05;;;;;;;14.75;100.00;94889.50;2065271;28;20058;-61
2023/08/01 04:30:03;;;;;;;12.80;6.43;;;;;;;14.77;100.00;94881.50;2065402;28;20053;-61
2023/08/01 04:31:05;;;;;;;12.63;5.93;;;;;;;14.78;100.00;94877.94;2065941;28;20057;-61
2023/08/01 04:32:06;;;;;;;12.23;5.70;;;;;;;14.76;100.00;94875.47;2066028;28;20046;-61
2023/08/01 04:33:08;;;;;;;11.82;6.20;;;;;;;14.79;100.00;94877.00;2066004;28;20042;-61
2023/08/01 04:34:09;;;;;;;9.02;6.63;;;;;;;14.81;100.00;94880.31;2065521;28;20053;-61
2023/08/01 04:35:11;;;;;;;11.07;5.55;;;;;;;14.76;100.00;94867.63;2065589;28;20046;-61
2023/08/01 04:36:12;;;;;;;9.50;5.93;;;;;;;14.78;100.00;94867.47;2065456;28;20058;-61
2023/08/01 04:37:14;;;;;;;8.98;5.80;;;;;;;14.77;100.00;94864.03;2065891;28;20046;-62
2023/08/01 04:38:15;;;;;;;10.65;6.32;;;;;;;14.77;100.00;94864.03;2065131;28;20061;-61
2023/08/01 04:39:17;;;;;;;11.50;6.40;;;;;;;14.78;100.00;94864.88;2065707;28;20050;-61
2023/08/01 04:40:18;;;;;;;9.75;5.80;;;;;;;14.71;100.00;94858.50;2065594;28;20414;-61
2023/08/01 04:41:29;;;;;;;15.80;6.70;;;;;;;14.80;100.00;94864.75;2064235;28;20054;-61
2023/08/01 04:42:30;;;;;;;14.18;6.68;;;;;;;14.77;100.00;94852.75;2065749;28;20056;-61
2023/08/01 04:43:31;;;;;;;11.35;6.72;;;;;;;14.78;100.00;94859.63;2065388;28;20050;-61
2023/08/01 04:44:33;;;;;;;13.05;6.75;;;;;;;14.77;100.00;94850.97;2065141;28;20050;-61
2023/08/01 04:45:34;;;;;;;11.48;6.82;;;;;;;14.80;100.00;94855.13;2065248;28;20058;-61
2023/08/01 04:46:35;;;;;;;11.32;5.80;;;;;;;14.82;100.00;94866.28;2065421;28;20046;-62
2023/08/01 04:47:37;;;;;;;11.27;7.07;;;;;;;14.82;100.00;94858.44;2065245;28;20050;-61
2023/08/01 04:48:39;;;;;;;12.63;6.88;;;;;;;14.85;100.00;94862.59;2065735;28;20042;-61
2023/08/01 04:49:40;;;;;;;12.65;6.82;;;;;;;14.85;100.00;94862.59;2056663;28;20058;-61
2023/08/01 04:50:41;;;;;;;13.85;7.20;;;;;;;14.85;100.00;94854.75;2056996;28;20058;-61
2023/08/01 04:51:43;;;;;;;9.60;6.20;;;;;;;14.86;100.00;94852.03;2065779;28;20046;-61
2023/08/01 04:52:44;;;;;;;11.45;6.28;;;;;;;14.86;100.00;94852.03;2065386;28;20058;-62
2023/08/01 04:53:45;;;;;;;12.75;6.50;;;;;;;14.88;100.00;94857.09;2065037;28;20054;-62
2023/08/01 04:54:46;;;;;;;11.68;6.05;;;;;;;14.89;100.00;94857.00;2065907;28;20057;-61
2023/08/01 04:55:48;;;;;;;10.50;6.00;;;;;;;14.86;100.00;94844.19;2065871;28;20524;-61
2023/08/01 04:56:49;;;;;;;13.15;6.88;;;;;;;14.92;100.00;94848.06;2065251;28;20058;-61
2023/08/01 04:57:51;;;;;;;10.68;5.80;;;;;;;14.92;100.00;94848.91;2065700;28;20058;-61
2023/08/01 04:58:52;;;;;;;10.82;5.90;;;;;;;14.92;99.93;94851.50;2065536;28;20046;-61
2023/08/01 04:59:53;;;;;;;9.02;5.28;;;;;;;14.89;100.00;94840.47;2064997;28;20058;-61
2023/08/01 05:00:55;;;;;;;9.95;6.57;;;;;;;14.99;99.97;94851.81;2065670;28;20406;-61
2023/08/01 05:01:56;;;;;;;11.32;6.68;;;;;;;14.99;99.88;94847.44;2065261;28;20057;-61
2023/08/01 05:02:57;;;;;;;11.90;6.15;;;;;;;15.02;99.81;94848.94;2065656;28;20099;-61
2023/08/01 05:03:58;;;;;;;11.93;5.90;;;;;;;15.05;98.57;94850.47;2064846;28;20057;-61
2023/08/01 05:04:59;;;;;;;11.00;5.95;;;;;;;15.06;98.51;94858.22;2057120;28;20042;-61
2023/08/01 05:06:01;;;;;;;12.80;6.45;;;;;;;15.07;99.34;94859.84;2057105;28;20043;-62
2023/08/01 05:07:02;;;;;;;8.75;4.72;;;;;;;15.07;98.32;94859.84;2065726;28;20057;-61
2023/08/01 05:08:04;;;;;;;9.05;5.85;;;;;;;15.12;98.09;94862.91;2065515;28;20505;-61
2023/08/01 05:09:05;;;;;;;7.95;4.93;;;;;;;15.15;97.65;94869.69;2065656;28;20051;-61
2023/08/01 05:10:06;;;;;;;9.38;6.05;;;;;;;15.19;97.14;94877.16;2065645;28;20046;-61
2023/08/01 05:11:08;;;;;;;9.68;5.68;;;;;;;15.15;97.49;94864.44;2065669;28;20054;-61
2023/08/01 05:12:09;;;;;;;8.27;5.35;;;;;;;15.22;97.41;94879.50;2065701;28;20053;-63
2023/08/01 05:13:10;;;;;;;10.70;6.20;;;;;;;15.24;97.49;94870.72;2065712;28;20054;-63
2023/08/01 05:14:11;;;;;;;11.30;5.60;;;;;;;15.26;97.58;94877.44;2065649;28;20054;-63
2023/08/01 05:15:12;;;;;;;7.93;5.65;;;;;;;15.25;96.44;94878.41;2065530;28;20049;-63
2023/08/01 05:16:13;;;;;;;9.73;5.63;;;;;;;15.26;96.59;94863.56;2065786;28;20050;-63
2023/08/01 05:17:15;;;;;;;7.47;4.50;;;;;;;15.26;95.63;94864.38;2065069;28;20054;-63
2023/08/01 05:18:16;;;;;;;8.10;4.68;;;;;;;15.30;96.02;94868.41;2065823;28;20046;-63
2023/08/01 05:19:18;;;;;;;10.57;5.72;;;;;;;15.33;96.26;94869.94;2065223;28;20058;-63
2023/08/01 05:20:19;;;;;;;8.20;5.60;;;;;;;15.33;96.17;94872.56;2064979;28;20058;-63
2023/08/01 05:21:20;;;;;;;10.35;6.00;;;;;;;15.32;95.91;94868.28;2065794;28;20058;-63
2023/08/01 05:22:21;;;;;;;11.32;4.88;;;;;;;15.35;95.75;94863.63;2065621;28;20053;-62
2023/08/01 05:23:22;;;;;;;8.93;5.88;;;;;;;15.38;95.94;94862.53;2065636;28;20085;-63
2023/08/01 05:24:24;;;;;;;9.48;5.82;;;;;;;15.34;96.01;94864.59;2065556;28;20059;-63
2023/08/01 05:25:25;;;;;;;7.60;4.25;;;;;;;15.37;95.70;94872.19;2065090;28;20050;-63
2023/08/01 05:26:26;;;;;;;9.98;5.28;;;;;;;15.38;95.65;94879.06;2065563;28;20050;-63
2023/08/01 05:27:27;;;;;;;10.50;5.75;;;;;;;15.39;95.37;94880.69;2065223;28;20085;-63
2023/08/01 05:28:28;;;;;;;10.05;5.78;;;;;;;15.39;96.13;94872.84;2065458;28;20065;-63
2023/08/01 05:29:30;;;;;;;9.32;5.55;;;;;;;15.40;95.96;94881.56;2065280;28;20058;-63
2023/08/01 05:30:31;;;;;;;12.45;6.18;;;;;;;15.40;95.49;94871.91;2065593;28;20058;-63
2023/08/01 05:31:32;;;;;;;11.25;5.57;;;;;;;15.41;96.21;94872.72;2065681;28;20050;-63
2023/08/01 05:32:33;;;;;;;8.63;5.47;;;;;;;15.39;95.77;94857.16;2065425;28;20053;-62
2023/08/01 05:33:34;;;;;;;8.25;5.15;;;;;;;15.50;95.48;94864.09;2064942;28;20410;-63
2023/08/01 05:34:36;;;;;;;9.18;5.05;;;;;;;15.55;94.54;94853.25;2065539;28;20490;-63
2023/08/01 05:35:37;;;;;;;7.28;4.72;;;;;;;15.59;94.24;94860.72;2065648;28;20058;-63
2023/08/01 05:36:38;;;;;;;7.57;4.75;;;;;;;15.63;93.98;94858.66;2065735;28;20061;-63
2023/08/01 05:37:39;;;;;;;10.68;5.22;;;;;;;15.65;93.43;94860.19;2065097;28;20054;-63
2023/08/01 05:38:41;;;;;;;8.27;4.85;;;;;;;15.63;93.13;94843.78;2065660;28;20054;-63
2023/08/01 05:39:42;;;;;;;8.60;5.28;;;;;;;15.68;93.30;94859.09;2065359;28;20050;-63
2023/08/01 05:40:43;;;;;;;9.23;5.18;;;;;;;15.64;93.59;94847.25;2065447;28;20046;-63
2023/08/01 05:41:44;;;;;;;8.18;4.80;;;;;;;15.70;92.85;94849.38;2065536;28;20061;-63
2023/08/01 05:42:46;;;;;;;7.88;3.53;;;;;;;15.67;91.85;94836.50;2065896;28;20054;-63
2023/08/01 05:43:50;;;;;;;8.93;5.25;;;;;;;15.72;91.69;94839.59;2065291;28;20043;-65
2023/08/01 05:44:51;;;;;;;5.65;3.80;;;;;;;15.65;91.63;94834.00;2065574;28;20061;-64
2023/08/01 05:45:52;;;;;;;6.78;4.95;;;;;;;15.71;92.27;94840.53;2065557;28;20050;-64
2023/08/01 05:46:53;;;;;;;9.65;5.20;;;;;;;15.72;92.36;94828.31;2065153;28;20465;-64
2023/08/01 05:47:55;;;;;;;7.93;4.93;;;;;;;15.73;91.56;94822.09;2065470;28;20398;-64
2023/08/01 05:48:56;;;;;;;8.90;4.85;;;;;;;15.71;91.95;94814.38;2056325;28;20470;-64
2023/08/01 05:49:57;;;;;;;8.10;4.10;;;;;;;15.68;91.25;94809.38;2056863;28;20046;-64
2023/08/01 05:50:58;;;;;;;9.15;5.13;;;;;;;15.69;92.07;94813.69;2065115;28;20548;-64
2023/08/01 05:51:59;;;;;;;6.38;4.60;;;;;;;15.71;92.21;94805.69;2065819;28;20057;-64
2023/08/01 05:53:00;;;;;;;8.25;4.45;;;;;;;15.73;91.27;94803.78;2065254;28;20458;-64